createdAt,value
2023-03-23T00:02:03.204Z,32.92
2023-03-23T00:04:35.636Z,30.13
2023-03-23T00:07:07.754Z,29.27
2023-03-23T00:09:42.179Z,32.05
2023-03-23T00:12:16.729Z,32.75
2023-03-23T00:14:49.434Z,33.47
2023-03-23T00:17:24.591Z,32.10
2023-03-23T00:19:57.544Z,31.92
2023-03-23T00:22:30.344Z,32.15
2023-03-23T00:25:03.209Z,34.40
2023-03-23T00:27:35.662Z,33.92
2023-03-23T00:30:08.849Z,38.10
2023-03-23T00:32:41.315Z,36.80
2023-03-23T00:35:13.368Z,35.28
2023-03-23T00:37:45.542Z,40.75
2023-03-23T00:40:18.346Z,35.75
2023-03-23T00:42:50.637Z,34.70
2023-03-23T00:45:22.982Z,33.17
2023-03-23T00:47:55.131Z,35.15
2023-03-23T00:50:33.758Z,31.17
2023-03-23T00:53:10.807Z,35.25
2023-03-23T00:55:44.709Z,35.72
2023-03-23T00:58:17.500Z,41.72
2023-03-23T01:00:49.636Z,40.65
2023-03-23T01:03:22.143Z,35.78
2023-03-23T01:05:56.822Z,34.03
2023-03-23T01:08:29.494Z,33.00
2023-03-23T01:11:07.808Z,42.00
2023-03-23T01:13:41.459Z,35.45
2023-03-23T01:16:14.846Z,34.33
2023-03-23T01:18:47.142Z,35.50
2023-03-23T01:21:21.879Z,29.08
2023-03-23T01:23:54.478Z,40.88
2023-03-23T01:26:28.617Z,35.47
2023-03-23T01:29:01.415Z,48.17
2023-03-23T01:31:35.897Z,32.45
2023-03-23T01:34:09.364Z,35.90
2023-03-23T01:36:42.038Z,38.60
2023-03-23T01:39:14.559Z,37.30
2023-03-23T01:41:47.727Z,37.30
2023-03-23T01:44:19.784Z,34.10
2023-03-23T01:46:52.149Z,35.45
2023-03-23T01:49:39.374Z,40.70
2023-03-23T01:52:24.898Z,34.97
2023-03-23T01:54:59.310Z,36.28
2023-03-23T01:57:32.589Z,40.53
2023-03-23T02:00:15.658Z,35.22
2023-03-23T02:02:51.413Z,37.72
2023-03-23T02:05:36.431Z,39.53
2023-03-23T02:08:11.929Z,40.22
2023-03-23T02:10:44.162Z,42.80
2023-03-23T02:13:24.004Z,36.38
2023-03-23T02:16:34.681Z,38.00
2023-03-23T02:22:29.299Z,34.38
2023-03-23T02:25:41.485Z,36.97
2023-03-23T02:28:48.784Z,35.35
2023-03-23T02:31:49.062Z,33.35
2023-03-23T02:34:46.317Z,33.38
2023-03-23T02:37:29.026Z,35.72
2023-03-23T02:40:13.764Z,38.67
2023-03-23T02:42:51.262Z,38.45
2023-03-23T02:45:25.482Z,36.70
2023-03-23T02:47:58.786Z,34.63
2023-03-23T02:50:32.859Z,39.35
2023-03-23T02:53:11.518Z,41.85
2023-03-23T02:55:45.973Z,38.90
2023-03-23T02:58:18.181Z,40.30
2023-03-23T03:00:51.999Z,38.40
2023-03-23T03:03:29.846Z,34.17
2023-03-23T03:06:30.926Z,36.83
2023-03-23T03:09:36.813Z,34.28
2023-03-23T03:12:36.372Z,31.73
2023-03-23T03:15:33.934Z,38.63
2023-03-23T03:18:26.402Z,39.38
2023-03-23T03:21:07.206Z,31.23
2023-03-23T03:23:44.533Z,31.30
2023-03-23T03:26:18.409Z,34.65
2023-03-23T03:28:50.955Z,29.55
2023-03-23T03:31:33.987Z,26.30
2023-03-23T03:34:07.609Z,32.40
2023-03-23T03:36:42.394Z,38.22
2023-03-23T03:39:18.403Z,27.90
2023-03-23T03:41:50.596Z,32.85
2023-03-23T03:44:23.298Z,29.17
2023-03-23T03:46:55.687Z,26.02
2023-03-23T03:49:28.178Z,32.50
2023-03-23T03:52:00.440Z,32.33
2023-03-23T03:54:32.553Z,26.20
2023-03-23T03:57:04.841Z,30.58
2023-03-23T03:59:37.091Z,31.48
2023-03-23T04:02:09.700Z,28.70
2023-03-23T04:04:42.803Z,29.30
2023-03-23T04:07:17.372Z,24.75
2023-03-23T04:09:50.491Z,30.05
2023-03-23T04:12:22.838Z,23.42
2023-03-23T04:14:55.036Z,25.70
2023-03-23T04:17:38.956Z,26.83
2023-03-23T04:20:18.925Z,25.40
2023-03-23T04:23:04.590Z,22.05
2023-03-23T04:25:37.033Z,19.80
2023-03-23T04:28:11.460Z,21.95
2023-03-23T04:30:44.809Z,19.75
2023-03-23T04:33:17.184Z,22.50
2023-03-23T04:35:57.792Z,18.90
2023-03-23T04:38:33.812Z,20.17
2023-03-23T04:41:19.678Z,19.00
2023-03-23T04:43:54.490Z,20.33
2023-03-23T04:46:30.062Z,20.63
2023-03-23T04:49:03.187Z,16.63
2023-03-23T04:51:37.292Z,22.05
2023-03-23T04:54:09.791Z,14.40
2023-03-23T04:56:42.540Z,25.08
2023-03-23T04:59:18.576Z,16.38
2023-03-23T05:01:51.922Z,15.15
2023-03-23T05:04:44.123Z,21.30
2023-03-23T05:07:17.117Z,18.13
2023-03-23T05:09:50.349Z,15.90
2023-03-23T05:12:22.703Z,13.05
2023-03-23T05:14:54.981Z,16.00
2023-03-23T05:17:27.840Z,22.77
2023-03-23T05:20:00.462Z,15.50
2023-03-23T05:22:35.254Z,13.73
2023-03-23T05:25:12.102Z,21.75
2023-03-23T05:27:44.568Z,14.18
2023-03-23T05:30:18.082Z,15.57
2023-03-23T05:32:53.406Z,17.25
2023-03-23T05:35:25.647Z,9.23
2023-03-23T05:37:58.229Z,13.98
2023-03-23T05:40:34.386Z,11.60
2023-03-23T05:43:06.611Z,13.50
2023-03-23T05:45:38.775Z,13.43
2023-03-23T05:48:10.951Z,18.63
2023-03-23T05:50:43.105Z,27.25
2023-03-23T05:53:15.253Z,15.00
2023-03-23T05:55:48.159Z,18.35
2023-03-23T05:58:20.576Z,15.57
2023-03-23T06:00:52.774Z,15.45
2023-03-23T06:03:30.918Z,11.98
2023-03-23T06:06:04.698Z,13.98
2023-03-23T06:08:39.313Z,12.45
2023-03-23T06:11:11.748Z,12.18
2023-03-23T06:13:44.216Z,13.15
2023-03-23T06:16:16.939Z,13.70
2023-03-23T06:18:49.662Z,13.75
2023-03-23T06:21:23.096Z,11.45
2023-03-23T06:23:55.261Z,16.58
2023-03-23T06:26:33.812Z,11.10
2023-03-23T06:29:12.195Z,21.67
2023-03-23T06:32:01.992Z,9.82
2023-03-23T06:34:34.320Z,11.90
2023-03-23T06:37:06.746Z,12.82
2023-03-23T06:39:39.572Z,9.25
2023-03-23T06:42:13.174Z,14.48
2023-03-23T06:44:45.431Z,10.45
2023-03-23T06:47:21.270Z,8.73
2023-03-23T06:49:53.611Z,13.18
2023-03-23T06:52:26.916Z,11.43
2023-03-23T06:54:59.041Z,8.88
2023-03-23T06:57:31.187Z,8.82
2023-03-23T07:00:06.531Z,13.23
2023-03-23T07:02:43.264Z,12.52
2023-03-23T07:05:15.574Z,12.55
2023-03-23T07:07:47.705Z,12.93
2023-03-23T07:10:20.513Z,12.25
2023-03-23T07:12:53.540Z,11.55
2023-03-23T07:15:25.591Z,11.35
2023-03-23T07:17:57.976Z,11.70
2023-03-23T07:20:31.171Z,11.52
2023-03-23T07:23:06.333Z,12.73
2023-03-23T07:25:46.829Z,16.50
2023-03-23T07:28:19.887Z,16.40
2023-03-23T07:30:54.301Z,21.63
2023-03-23T10:58:44.965Z,12.57
2023-03-23T11:02:05.665Z,27.15
2023-03-23T11:17:29.620Z,9.25
2023-03-23T11:44:16.961Z,8.10
2023-03-23T11:59:52.905Z,7.70
2023-03-23T12:11:43.709Z,9.05
2023-03-23T12:14:36.564Z,11.35
2023-03-23T12:17:40.612Z,10.05
2023-03-23T12:23:46.325Z,13.18
2023-03-23T12:30:32.103Z,11.88
2023-03-23T12:33:47.899Z,8.45
2023-03-23T12:36:38.540Z,4.88
2023-03-23T12:40:24.919Z,7.10
2023-03-23T12:46:36.612Z,10.30
2023-03-23T12:49:17.598Z,5.60
2023-03-23T12:52:43.973Z,6.80
2023-03-23T12:55:25.112Z,7.90
2023-03-23T12:58:28.309Z,8.25
2023-03-23T13:01:23.015Z,10.57
2023-03-23T13:04:28.637Z,10.20
2023-03-23T13:07:04.497Z,9.88
2023-03-23T13:10:05.399Z,7.32
2023-03-23T13:12:44.647Z,9.02
2023-03-23T13:15:51.146Z,8.25
2023-03-23T13:18:41.440Z,4.65
2023-03-23T13:24:19.255Z,7.38
2023-03-23T13:26:52.156Z,7.18
2023-03-23T13:29:28.942Z,5.10
2023-03-23T13:32:49.930Z,6.18
2023-03-23T13:35:26.884Z,7.53
2023-03-23T13:37:59.698Z,9.75
2023-03-23T13:40:33.258Z,10.93
2023-03-23T13:43:06.563Z,15.30
2023-03-23T13:45:48.045Z,24.30
2023-03-23T13:48:25.473Z,10.40
2023-03-23T13:51:02.781Z,12.85
2023-03-23T13:53:49.361Z,13.07
2023-03-23T13:56:42.709Z,15.48
2023-03-23T13:59:32.680Z,11.18
2023-03-23T14:02:40.322Z,7.50
2023-03-23T14:05:44.476Z,13.00
2023-03-23T14:08:29.989Z,11.63
2023-03-23T14:11:25.302Z,16.58
2023-03-23T14:14:16.904Z,22.48
2023-03-23T14:16:55.781Z,12.27
2023-03-23T14:19:30.819Z,7.88
2023-03-23T14:22:03.790Z,15.48
2023-03-23T14:24:41.956Z,9.45
2023-03-23T14:27:25.009Z,9.85
2023-03-23T14:30:09.712Z,9.57
2023-03-23T14:32:42.703Z,12.45
2023-03-23T14:35:35.455Z,7.65
2023-03-23T14:38:19.572Z,16.00
2023-03-23T14:40:52.125Z,9.88
2023-03-23T14:43:25.691Z,13.10
2023-03-23T14:46:02.737Z,11.15
2023-03-23T14:48:36.291Z,11.80
2023-03-23T14:51:19.465Z,7.68
2023-03-23T14:53:55.299Z,11.43
2023-03-23T14:56:37.817Z,7.18
2023-03-23T14:59:12.264Z,6.70
2023-03-23T15:01:47.192Z,7.82
2023-03-23T15:04:23.751Z,12.25
2023-03-23T15:07:05.651Z,11.73
2023-03-23T15:09:58.237Z,11.85
2023-03-23T15:12:32.474Z,17.00
2023-03-23T15:15:09.001Z,18.08
2023-03-23T15:17:41.233Z,15.18
2023-03-23T15:20:49.981Z,12.95
2023-03-23T15:23:30.657Z,13.60
2023-03-23T15:26:09.155Z,10.43
2023-03-23T15:28:42.241Z,13.60
2023-03-23T15:31:14.502Z,15.65
2023-03-23T15:33:46.902Z,17.88
2023-03-23T15:36:19.643Z,13.75
2023-03-23T15:38:51.893Z,14.45
2023-03-23T15:41:31.928Z,13.60
2023-03-23T15:44:32.241Z,13.75
2023-03-23T15:47:18.454Z,8.43
2023-03-23T15:50:25.793Z,16.45
2023-03-23T15:52:58.020Z,13.02
2023-03-23T15:55:38.224Z,10.65
2023-03-23T15:58:13.446Z,12.40
2023-03-23T16:00:47.912Z,16.90
2023-03-23T16:03:27.942Z,10.77
2023-03-23T16:06:03.395Z,5.68
2023-03-23T16:08:41.268Z,11.15
2023-03-23T16:11:31.547Z,11.70
2023-03-23T16:14:03.835Z,12.15
2023-03-23T16:16:43.574Z,4.72
2023-03-23T16:19:16.932Z,8.45
2023-03-23T16:21:49.090Z,8.32
2023-03-23T16:24:21.252Z,15.38
2023-03-23T16:26:53.650Z,8.07
2023-03-23T16:29:43.403Z,7.40
2023-03-23T16:32:17.906Z,8.27
2023-03-23T16:34:50.500Z,8.77
2023-03-23T16:37:22.635Z,8.82
2023-03-23T16:39:54.758Z,5.95
2023-03-23T16:42:27.036Z,7.72
2023-03-23T16:44:59.244Z,5.90
2023-03-23T16:47:31.426Z,11.45
2023-03-23T16:50:07.009Z,12.52
2023-03-23T16:52:46.381Z,6.95
2023-03-23T16:55:18.884Z,7.30
2023-03-23T16:57:51.097Z,8.98
2023-03-23T17:00:23.869Z,6.57
2023-03-23T17:02:57.658Z,6.45
2023-03-23T17:05:30.196Z,7.28
2023-03-23T17:08:02.529Z,5.65
2023-03-23T17:10:38.248Z,4.85
2023-03-23T17:13:11.244Z,4.32
2023-03-23T17:15:46.921Z,6.45
2023-03-23T17:18:19.687Z,4.53
2023-03-23T17:20:54.359Z,6.85
2023-03-23T17:23:26.841Z,6.40
2023-03-23T17:25:59.003Z,6.22
2023-03-23T17:28:31.218Z,6.82
2023-03-23T17:31:03.848Z,9.48
2023-03-23T17:33:35.945Z,6.28
2023-03-23T17:36:09.081Z,11.80
2023-03-23T17:38:41.362Z,8.70
2023-03-23T17:41:13.552Z,6.78
2023-03-23T17:43:45.698Z,11.13
2023-03-23T17:46:18.481Z,7.68
2023-03-23T17:48:51.951Z,15.20
2023-03-23T17:51:24.212Z,11.60
2023-03-23T17:53:56.352Z,8.45
2023-03-23T17:56:28.748Z,11.80
2023-03-23T17:59:00.846Z,6.88
2023-03-23T18:01:33.201Z,10.40
2023-03-23T18:04:06.330Z,8.30
2023-03-23T18:06:38.504Z,9.18
2023-03-23T18:09:11.089Z,9.35
2023-03-23T18:11:43.210Z,7.80
2023-03-23T18:14:15.574Z,6.85
2023-03-23T18:16:48.522Z,8.32
2023-03-23T18:19:20.732Z,11.40
2023-03-23T18:21:52.851Z,7.03
2023-03-23T18:24:25.053Z,11.25
2023-03-23T18:26:57.339Z,11.60
2023-03-23T18:29:29.530Z,8.95
2023-03-23T18:32:01.648Z,7.95
2023-03-23T18:34:34.600Z,10.27
2023-03-23T18:37:06.805Z,7.68
2023-03-23T18:39:39.460Z,10.90
2023-03-23T18:42:11.741Z,7.22
2023-03-23T18:44:43.953Z,8.82
2023-03-23T18:47:16.272Z,9.38
2023-03-23T18:49:52.088Z,11.98
2023-03-23T18:52:26.825Z,6.50
2023-03-23T18:54:59.558Z,7.65
2023-03-23T18:57:31.821Z,7.60
2023-03-23T19:00:05.002Z,5.43
2023-03-23T19:02:39.610Z,6.05
2023-03-23T19:05:12.336Z,12.18
2023-03-23T19:07:44.537Z,12.70
2023-03-23T19:10:17.454Z,12.00
2023-03-23T19:12:50.634Z,12.90
2023-03-23T19:15:24.707Z,9.77
2023-03-23T19:17:56.968Z,11.50
2023-03-23T19:20:47.242Z,6.20
2023-03-23T19:23:23.226Z,13.52
2023-03-23T19:25:55.470Z,7.30
2023-03-23T19:31:02.851Z,11.82
2023-03-23T19:33:35.045Z,15.15
2023-03-23T19:36:11.681Z,12.02
2023-03-23T19:38:45.661Z,11.43
2023-03-23T19:41:19.262Z,14.27
2023-03-23T19:43:51.864Z,15.70
2023-03-23T19:46:25.981Z,11.50
2023-03-23T19:49:00.142Z,6.72
2023-03-23T19:51:32.279Z,12.23
2023-03-23T19:54:07.343Z,13.85
2023-03-23T19:56:39.767Z,10.60
2023-03-23T19:59:15.007Z,11.55
2023-03-23T20:01:47.600Z,12.05
2023-03-23T20:04:21.584Z,19.02
2023-03-23T20:06:57.079Z,10.80
2023-03-23T20:09:30.702Z,17.08
2023-03-23T20:12:05.068Z,15.20
2023-03-23T20:14:38.426Z,13.00
2023-03-23T20:17:11.976Z,12.43
2023-03-23T20:19:44.569Z,10.48
2023-03-23T20:22:17.856Z,14.45
2023-03-23T20:24:50.054Z,14.45
2023-03-23T20:27:22.202Z,12.40
2023-03-23T20:29:57.005Z,14.10
2023-03-23T20:32:33.284Z,22.80
2023-03-23T20:35:09.524Z,14.90
2023-03-23T20:37:42.361Z,11.98
2023-03-23T20:40:15.293Z,14.13
2023-03-23T20:42:49.275Z,14.57
2023-03-23T20:45:21.529Z,11.65
2023-03-23T20:47:54.003Z,17.17
2023-03-23T20:50:26.278Z,13.82
2023-03-23T20:52:58.461Z,19.83
2023-03-23T20:55:30.647Z,16.48
2023-03-23T20:58:05.695Z,18.90
2023-03-23T21:00:41.248Z,16.85
2023-03-23T21:03:16.234Z,19.67
2023-03-23T21:05:48.349Z,17.85
2023-03-23T21:08:20.502Z,19.15
2023-03-23T21:10:52.681Z,24.65
2023-03-23T21:13:25.177Z,24.00
2023-03-23T21:15:57.453Z,27.92
2023-03-23T21:18:30.195Z,21.20
2023-03-23T21:21:04.496Z,22.85
2023-03-23T21:23:38.509Z,24.30
2023-03-23T21:26:12.196Z,21.60
2023-03-23T21:28:45.611Z,21.92
2023-03-23T21:31:18.517Z,21.85
2023-03-23T21:33:50.904Z,16.38
2023-03-23T21:36:24.883Z,19.05
2023-03-23T21:38:57.393Z,22.02
2023-03-23T21:41:41.705Z,24.83
2023-03-23T21:44:15.515Z,19.77
2023-03-23T21:46:47.649Z,20.50
2023-03-23T21:49:19.939Z,24.33
2023-03-23T21:51:52.132Z,21.73
2023-03-23T21:54:24.249Z,25.08
2023-03-23T21:56:58.887Z,25.92
2023-03-23T21:59:31.325Z,27.00
2023-03-23T22:02:03.594Z,25.27
2023-03-23T22:04:35.873Z,24.98
2023-03-23T22:07:08.292Z,20.38
2023-03-23T22:09:45.122Z,21.40
2023-03-23T22:12:18.108Z,22.65
2023-03-23T22:14:50.529Z,18.75
2023-03-23T22:17:22.760Z,24.55
2023-03-23T22:19:54.968Z,19.38
2023-03-23T22:22:27.580Z,20.08
2023-03-23T22:24:59.724Z,16.33
2023-03-23T22:27:32.294Z,17.08
2023-03-23T22:30:05.430Z,24.88
2023-03-23T22:32:38.243Z,18.33
2023-03-23T22:35:12.727Z,16.23
2023-03-23T22:37:45.037Z,13.88
2023-03-23T22:40:18.284Z,16.35
2023-03-23T22:42:54.098Z,21.70
2023-03-23T22:45:28.043Z,15.80
2023-03-23T22:48:00.419Z,19.90
2023-03-23T22:50:32.573Z,18.02
2023-03-23T22:53:04.986Z,15.68
2023-03-23T22:55:42.075Z,20.30
2023-03-23T22:58:16.184Z,18.10
2023-03-23T23:00:55.167Z,13.45
2023-03-23T23:03:28.352Z,17.65
2023-03-23T23:06:01.780Z,18.10
2023-03-23T23:08:34.503Z,11.13
2023-03-23T23:11:07.642Z,13.85
2023-03-23T23:13:41.497Z,14.35
2023-03-23T23:16:17.439Z,19.27
2023-03-23T23:18:49.988Z,16.10
2023-03-23T23:21:26.191Z,19.00
2023-03-23T23:23:58.398Z,15.63
2023-03-23T23:26:31.027Z,10.23
2023-03-23T23:29:04.574Z,9.18
2023-03-23T23:31:36.949Z,11.93
2023-03-23T23:34:14.249Z,15.65
2023-03-23T23:36:46.826Z,15.18
2023-03-23T23:39:19.124Z,13.18
2023-03-23T23:41:51.522Z,11.70
2023-03-23T23:44:23.767Z,11.55
2023-03-23T23:46:57.665Z,12.23
2023-03-23T23:49:30.016Z,9.95
2023-03-23T23:52:02.464Z,14.48
2023-03-23T23:54:37.699Z,13.73
2023-03-23T23:57:10.005Z,10.35
2023-03-23T23:59:42.476Z,19.92
